sensor_id;sensor_type;location;lat;lon;timestamp;temperature;humidity
9965;DHT22;5023;53.554;9.964;2023-02-04T00:00:22;4.60;99.90
9965;DHT22;5023;53.554;9.964;2023-02-04T00:05:24;4.50;99.90
9965;DHT22;5023;53.554;9.964;2023-02-04T00:10:27;4.70;99.90
9965;DHT22;5023;53.554;9.964;2023-02-04T00:15:30;4.60;99.90
9965;DHT22;5023;53.554;9.964;2023-02-04T00:20:32;4.50;99.90
9965;DHT22;5023;53.554;9.964;2023-02-04T00:25:35;4.50;99.90
9965;DHT22;5023;53.554;9.964;2023-02-04T00:30:38;4.50;99.90
9965;DHT22;5023;53.554;9.964;2023-02-04T00:35:40;4.50;99.90
9965;DHT22;5023;53.554;9.964;2023-02-04T00:40:42;4.50;99.90
9965;DHT22;5023;53.554;9.964;2023-02-04T00:45:46;4.50;99.90
9965;DHT22;5023;53.554;9.964;2023-02-04T00:50:48;4.40;99.90
9965;DHT22;5023;53.554;9.964;2023-02-04T00:55:51;4.40;99.90
9965;DHT22;5023;53.554;9.964;2023-02-04T01:00:54;4.30;99.90
9965;DHT22;5023;53.554;9.964;2023-02-04T01:05:56;4.20;99.90
9965;DHT22;5023;53.554;9.964;2023-02-04T01:10:58;4.20;99.90
9965;DHT22;5023;53.554;9.964;2023-02-04T01:16:02;4.20;99.90
9965;DHT22;5023;53.554;9.964;2023-02-04T01:21:04;4.10;99.90
9965;DHT22;5023;53.554;9.964;2023-02-04T01:26:08;4.10;99.90
9965;DHT22;5023;53.554;9.964;2023-02-04T01:31:11;4.10;99.90
9965;DHT22;5023;53.554;9.964;2023-02-04T01:36:13;4.00;99.90
9965;DHT22;5023;53.554;9.964;2023-02-04T01:41:22;4.00;99.90
9965;DHT22;5023;53.554;9.964;2023-02-04T01:46:26;4.00;99.90
9965;DHT22;5023;53.554;9.964;2023-02-04T01:51:28;3.90;99.90
9965;DHT22;5023;53.554;9.964;2023-02-04T01:56:31;3.90;99.90
9965;DHT22;5023;53.554;9.964;2023-02-04T02:01:37;4.00;99.90
9965;DHT22;5023;53.554;9.964;2023-02-04T02:06:44;4.00;99.90
9965;DHT22;5023;53.554;9.964;2023-02-04T02:11:48;4.00;99.90
9965;DHT22;5023;53.554;9.964;2023-02-04T02:16:51;4.00;99.90
9965;DHT22;5023;53.554;9.964;2023-02-04T02:21:57;4.00;99.90
9965;DHT22;5023;53.554;9.964;2023-02-04T02:27:06;4.00;99.90
9965;DHT22;5023;53.554;9.964;2023-02-04T02:32:10;3.90;99.90
9965;DHT22;5023;53.554;9.964;2023-02-04T02:37:14;3.90;99.90
9965;DHT22;5023;53.554;9.964;2023-02-04T02:42:19;4.00;99.90
9965;DHT22;5023;53.554;9.964;2023-02-04T02:47:23;3.90;99.90
9965;DHT22;5023;53.554;9.964;2023-02-04T02:52:25;4.00;99.90
9965;DHT22;5023;53.554;9.964;2023-02-04T02:57:29;4.00;99.90
9965;DHT22;5023;53.554;9.964;2023-02-04T03:02:31;4.00;99.90
9965;DHT22;5023;53.554;9.964;2023-02-04T03:07:33;3.90;99.90
9965;DHT22;5023;53.554;9.964;2023-02-04T03:12:36;3.90;99.90
9965;DHT22;5023;53.554;9.964;2023-02-04T03:17:39;3.90;99.90
9965;DHT22;5023;53.554;9.964;2023-02-04T03:22:42;3.80;99.90
9965;DHT22;5023;53.554;9.964;2023-02-04T03:27:45;3.80;99.90
9965;DHT22;5023;53.554;9.964;2023-02-04T03:32:48;3.80;99.90
9965;DHT22;5023;53.554;9.964;2023-02-04T03:37:50;3.80;99.90
9965;DHT22;5023;53.554;9.964;2023-02-04T03:42:54;3.70;99.90
9965;DHT22;5023;53.554;9.964;2023-02-04T03:47:56;3.60;99.90
9965;DHT22;5023;53.554;9.964;2023-02-04T03:52:58;3.60;99.90
9965;DHT22;5023;53.554;9.964;2023-02-04T03:58:02;3.50;99.90
9965;DHT22;5023;53.554;9.964;2023-02-04T04:03:04;3.40;99.90
9965;DHT22;5023;53.554;9.964;2023-02-04T04:08:06;3.40;99.90
9965;DHT22;5023;53.554;9.964;2023-02-04T04:13:10;3.40;99.90
9965;DHT22;5023;53.554;9.964;2023-02-04T04:18:12;3.30;99.90
9965;DHT22;5023;53.554;9.964;2023-02-04T04:23:16;3.30;99.90
9965;DHT22;5023;53.554;9.964;2023-02-04T04:28:19;3.30;99.90
9965;DHT22;5023;53.554;9.964;2023-02-04T04:33:21;3.40;99.90
9965;DHT22;5023;53.554;9.964;2023-02-04T04:38:23;3.40;99.90
9965;DHT22;5023;53.554;9.964;2023-02-04T04:43:27;3.40;99.90
9965;DHT22;5023;53.554;9.964;2023-02-04T04:48:32;3.50;99.90
9965;DHT22;5023;53.554;9.964;2023-02-04T04:53:34;3.60;99.90
9965;DHT22;5023;53.554;9.964;2023-02-04T04:58:40;3.60;99.90
9965;DHT22;5023;53.554;9.964;2023-02-04T05:03:42;3.50;99.90
9965;DHT22;5023;53.554;9.964;2023-02-04T05:08:46;3.50;99.90
9965;DHT22;5023;53.554;9.964;2023-02-04T05:13:49;3.50;99.90
9965;DHT22;5023;53.554;9.964;2023-02-04T05:18:51;3.40;99.90
9965;DHT22;5023;53.554;9.964;2023-02-04T05:23:53;3.50;99.90
9965;DHT22;5023;53.554;9.964;2023-02-04T05:28:57;3.50;99.90
9965;DHT22;5023;53.554;9.964;2023-02-04T05:34:00;3.40;99.90
9965;DHT22;5023;53.554;9.964;2023-02-04T05:39:02;3.40;99.90
9965;DHT22;5023;53.554;9.964;2023-02-04T05:44:06;3.40;99.90
9965;DHT22;5023;53.554;9.964;2023-02-04T05:49:08;3.40;99.90
9965;DHT22;5023;53.554;9.964;2023-02-04T05:54:10;3.40;99.90
9965;DHT22;5023;53.554;9.964;2023-02-04T05:59:20;3.30;99.90
9965;DHT22;5023;53.554;9.964;2023-02-04T06:04:22;3.20;99.90
9965;DHT22;5023;53.554;9.964;2023-02-04T06:09:24;3.20;99.90
9965;DHT22;5023;53.554;9.964;2023-02-04T06:14:27;3.20;99.90
9965;DHT22;5023;53.554;9.964;2023-02-04T06:19:29;3.30;99.90
9965;DHT22;5023;53.554;9.964;2023-02-04T06:24:31;3.30;99.90
9965;DHT22;5023;53.554;9.964;2023-02-04T06:29:35;3.20;99.90
9965;DHT22;5023;53.554;9.964;2023-02-04T06:34:37;3.10;99.90
9965;DHT22;5023;53.554;9.964;2023-02-04T06:39:40;3.20;99.90
9965;DHT22;5023;53.554;9.964;2023-02-04T06:44:43;3.20;99.90
9965;DHT22;5023;53.554;9.964;2023-02-04T06:49:45;3.20;99.90
9965;DHT22;5023;53.554;9.964;2023-02-04T06:54:48;3.20;99.90
9965;DHT22;5023;53.554;9.964;2023-02-04T06:59:51;3.10;99.90
9965;DHT22;5023;53.554;9.964;2023-02-04T07:04:54;3.10;99.90
9965;DHT22;5023;53.554;9.964;2023-02-04T07:09:57;3.10;99.90
9965;DHT22;5023;53.554;9.964;2023-02-04T07:15:01;3.20;99.90
9965;DHT22;5023;53.554;9.964;2023-02-04T07:20:03;3.20;99.90
9965;DHT22;5023;53.554;9.964;2023-02-04T07:25:06;3.20;99.90
9965;DHT22;5023;53.554;9.964;2023-02-04T07:30:10;3.10;99.90
9965;DHT22;5023;53.554;9.964;2023-02-04T07:35:12;3.10;99.90
9965;DHT22;5023;53.554;9.964;2023-02-04T07:40:15;3.10;99.90
9965;DHT22;5023;53.554;9.964;2023-02-04T07:45:23;3.10;99.90
9965;DHT22;5023;53.554;9.964;2023-02-04T07:50:25;3.10;99.90
9965;DHT22;5023;53.554;9.964;2023-02-04T07:55:27;3.00;99.90
9965;DHT22;5023;53.554;9.964;2023-02-04T08:00:31;3.10;99.90
9965;DHT22;5023;53.554;9.964;2023-02-04T08:05:35;3.10;99.90
9965;DHT22;5023;53.554;9.964;2023-02-04T08:10:37;3.10;99.90
9965;DHT22;5023;53.554;9.964;2023-02-04T08:15:42;3.10;99.90
9965;DHT22;5023;53.554;9.964;2023-02-04T08:20:48;3.20;99.90
9965;DHT22;5023;53.554;9.964;2023-02-04T08:25:50;3.20;99.90
9965;DHT22;5023;53.554;9.964;2023-02-04T08:30:54;3.30;99.90
9965;DHT22;5023;53.554;9.964;2023-02-04T08:35:57;3.20;99.90
9965;DHT22;5023;53.554;9.964;2023-02-04T08:41:00;3.30;99.90
9965;DHT22;5023;53.554;9.964;2023-02-04T08:46:05;3.30;99.90
9965;DHT22;5023;53.554;9.964;2023-02-04T08:51:07;3.30;99.90
9965;DHT22;5023;53.554;9.964;2023-02-04T08:56:10;3.40;99.90
9965;DHT22;5023;53.554;9.964;2023-02-04T09:01:17;3.40;99.90
9965;DHT22;5023;53.554;9.964;2023-02-04T09:06:19;3.50;99.90
9965;DHT22;5023;53.554;9.964;2023-02-04T09:11:23;3.60;99.90
9965;DHT22;5023;53.554;9.964;2023-02-04T09:16:27;4.00;99.90
9965;DHT22;5023;53.554;9.964;2023-02-04T09:21:29;4.00;99.90
9965;DHT22;5023;53.554;9.964;2023-02-04T09:26:33;4.00;99.90
9965;DHT22;5023;53.554;9.964;2023-02-04T09:31:36;4.50;99.90
9965;DHT22;5023;53.554;9.964;2023-02-04T09:36:38;4.40;99.90
9965;DHT22;5023;53.554;9.964;2023-02-04T09:41:41;4.50;99.90
9965;DHT22;5023;53.554;9.964;2023-02-04T09:46:48;4.50;99.90
9965;DHT22;5023;53.554;9.964;2023-02-04T09:51:51;4.50;99.90
9965;DHT22;5023;53.554;9.964;2023-02-04T09:56:56;4.40;99.90
9965;DHT22;5023;53.554;9.964;2023-02-04T10:02:03;4.50;99.90
9965;DHT22;5023;53.554;9.964;2023-02-04T10:07:12;4.70;99.90
9965;DHT22;5023;53.554;9.964;2023-02-04T10:12:19;4.60;99.90
9965;DHT22;5023;53.554;9.964;2023-02-04T10:17:22;4.60;99.90
9965;DHT22;5023;53.554;9.964;2023-02-04T10:22:25;4.60;99.90
9965;DHT22;5023;53.554;9.964;2023-02-04T10:27:27;4.80;99.90
9965;DHT22;5023;53.554;9.964;2023-02-04T10:32:32;4.70;99.90
9965;DHT22;5023;53.554;9.964;2023-02-04T10:37:34;5.00;99.90
9965;DHT22;5023;53.554;9.964;2023-02-04T10:42:36;5.40;99.90
9965;DHT22;5023;53.554;9.964;2023-02-04T10:47:52;5.20;99.90
9965;DHT22;5023;53.554;9.964;2023-02-04T10:52:56;5.30;99.90
9965;DHT22;5023;53.554;9.964;2023-02-04T10:58:25;5.10;99.90
9965;DHT22;5023;53.554;9.964;2023-02-04T11:03:37;5.30;99.90
9965;DHT22;5023;53.554;9.964;2023-02-04T11:08:39;6.20;99.90
9965;DHT22;5023;53.554;9.964;2023-02-04T11:13:44;6.50;99.90
9965;DHT22;5023;53.554;9.964;2023-02-04T11:18:54;6.70;99.90
9965;DHT22;5023;53.554;9.964;2023-02-04T11:24:04;6.40;99.90
9965;DHT22;5023;53.554;9.964;2023-02-04T11:29:21;6.30;99.90
9965;DHT22;5023;53.554;9.964;2023-02-04T11:34:43;6.00;99.90
9965;DHT22;5023;53.554;9.964;2023-02-04T11:39:47;5.90;99.90
9965;DHT22;5023;53.554;9.964;2023-02-04T11:44:51;5.80;99.90
9965;DHT22;5023;53.554;9.964;2023-02-04T11:49:58;5.70;99.90
9965;DHT22;5023;53.554;9.964;2023-02-04T11:55:03;5.70;99.90
9965;DHT22;5023;53.554;9.964;2023-02-04T12:00:11;5.90;99.90
9965;DHT22;5023;53.554;9.964;2023-02-04T12:05:17;6.20;99.90
9965;DHT22;5023;53.554;9.964;2023-02-04T12:10:23;6.10;99.90
9965;DHT22;5023;53.554;9.964;2023-02-04T12:15:31;6.10;99.90
9965;DHT22;5023;53.554;9.964;2023-02-04T12:20:39;5.90;99.90
9965;DHT22;5023;53.554;9.964;2023-02-04T12:25:41;6.10;99.90
9965;DHT22;5023;53.554;9.964;2023-02-04T12:30:43;6.00;99.90
9965;DHT22;5023;53.554;9.964;2023-02-04T12:35:46;5.80;99.90
9965;DHT22;5023;53.554;9.964;2023-02-04T12:40:48;5.80;99.90
9965;DHT22;5023;53.554;9.964;2023-02-04T12:45:52;6.00;99.90
9965;DHT22;5023;53.554;9.964;2023-02-04T12:50:55;6.00;99.90
9965;DHT22;5023;53.554;9.964;2023-02-04T12:55:57;6.10;99.90
9965;DHT22;5023;53.554;9.964;2023-02-04T13:01:00;6.20;99.90
9965;DHT22;5023;53.554;9.964;2023-02-04T13:06:03;6.30;99.90
9965;DHT22;5023;53.554;9.964;2023-02-04T13:11:06;6.40;99.90
9965;DHT22;5023;53.554;9.964;2023-02-04T13:16:08;6.50;99.90
9965;DHT22;5023;53.554;9.964;2023-02-04T13:21:11;6.30;99.90
9965;DHT22;5023;53.554;9.964;2023-02-04T13:26:13;6.20;99.90
9965;DHT22;5023;53.554;9.964;2023-02-04T13:31:16;6.20;99.90
9965;DHT22;5023;53.554;9.964;2023-02-04T13:36:19;6.30;99.90
9965;DHT22;5023;53.554;9.964;2023-02-04T13:41:21;6.30;99.90
9965;DHT22;5023;53.554;9.964;2023-02-04T13:46:23;6.20;99.90
9965;DHT22;5023;53.554;9.964;2023-02-04T13:51:27;6.10;99.90
9965;DHT22;5023;53.554;9.964;2023-02-04T13:56:30;6.10;99.90
9965;DHT22;5023;53.554;9.964;2023-02-04T14:01:33;6.10;99.90
9965;DHT22;5023;53.554;9.964;2023-02-04T14:06:36;6.20;99.90
9965;DHT22;5023;53.554;9.964;2023-02-04T14:11:43;6.20;99.90
9965;DHT22;5023;53.554;9.964;2023-02-04T14:16:45;6.20;99.90
9965;DHT22;5023;53.554;9.964;2023-02-04T14:21:48;6.20;99.90
9965;DHT22;5023;53.554;9.964;2023-02-04T14:26:50;6.00;99.90
9965;DHT22;5023;53.554;9.964;2023-02-04T14:31:52;6.00;99.90
9965;DHT22;5023;53.554;9.964;2023-02-04T14:36:57;6.00;99.90
9965;DHT22;5023;53.554;9.964;2023-02-04T14:41:59;6.00;99.90
9965;DHT22;5023;53.554;9.964;2023-02-04T14:47:04;5.90;99.90
9965;DHT22;5023;53.554;9.964;2023-02-04T14:52:08;5.90;99.90
9965;DHT22;5023;53.554;9.964;2023-02-04T14:57:11;5.90;99.90
9965;DHT22;5023;53.554;9.964;2023-02-04T15:02:13;5.80;99.90
9965;DHT22;5023;53.554;9.964;2023-02-04T15:07:17;5.70;99.90
9965;DHT22;5023;53.554;9.964;2023-02-04T15:12:20;5.70;99.90
9965;DHT22;5023;53.554;9.964;2023-02-04T15:17:23;5.70;99.90
9965;DHT22;5023;53.554;9.964;2023-02-04T15:22:26;5.50;99.90
9965;DHT22;5023;53.554;9.964;2023-02-04T15:27:29;5.50;99.90
9965;DHT22;5023;53.554;9.964;2023-02-04T15:32:31;5.40;99.90
9965;DHT22;5023;53.554;9.964;2023-02-04T15:37:34;5.40;99.90
9965;DHT22;5023;53.554;9.964;2023-02-04T15:42:37;5.50;99.90
9965;DHT22;5023;53.554;9.964;2023-02-04T15:47:39;5.30;99.90
9965;DHT22;5023;53.554;9.964;2023-02-04T15:52:43;5.30;99.90
9965;DHT22;5023;53.554;9.964;2023-02-04T15:57:45;5.30;99.90
9965;DHT22;5023;53.554;9.964;2023-02-04T16:02:48;5.30;99.90
9965;DHT22;5023;53.554;9.964;2023-02-04T16:07:55;5.20;99.90
9965;DHT22;5023;53.554;9.964;2023-02-04T16:12:57;5.10;99.90
9965;DHT22;5023;53.554;9.964;2023-02-04T16:18:00;4.90;99.90
9965;DHT22;5023;53.554;9.964;2023-02-04T16:23:03;4.80;99.90
9965;DHT22;5023;53.554;9.964;2023-02-04T16:28:07;4.80;99.90
9965;DHT22;5023;53.554;9.964;2023-02-04T16:33:09;4.70;99.90
9965;DHT22;5023;53.554;9.964;2023-02-04T16:38:13;4.70;99.90
9965;DHT22;5023;53.554;9.964;2023-02-04T16:43:18;4.70;99.90
9965;DHT22;5023;53.554;9.964;2023-02-04T16:48:20;4.70;99.90
9965;DHT22;5023;53.554;9.964;2023-02-04T16:53:23;4.60;99.90
9965;DHT22;5023;53.554;9.964;2023-02-04T16:58:25;4.60;99.90
9965;DHT22;5023;53.554;9.964;2023-02-04T17:03:27;4.60;99.90
9965;DHT22;5023;53.554;9.964;2023-02-04T17:08:31;4.50;99.90
9965;DHT22;5023;53.554;9.964;2023-02-04T17:13:33;4.40;99.90
9965;DHT22;5023;53.554;9.964;2023-02-04T17:18:36;4.40;99.90
9965;DHT22;5023;53.554;9.964;2023-02-04T17:23:39;4.40;99.90
9965;DHT22;5023;53.554;9.964;2023-02-04T17:28:42;4.30;99.90
9965;DHT22;5023;53.554;9.964;2023-02-04T17:33:44;4.30;99.90
9965;DHT22;5023;53.554;9.964;2023-02-04T17:38:48;4.30;99.90
9965;DHT22;5023;53.554;9.964;2023-02-04T17:43:51;4.30;99.90
9965;DHT22;5023;53.554;9.964;2023-02-04T17:48:53;4.30;99.90
9965;DHT22;5023;53.554;9.964;2023-02-04T17:53:57;4.20;99.90
9965;DHT22;5023;53.554;9.964;2023-02-04T17:59:00;4.20;99.90
9965;DHT22;5023;53.554;9.964;2023-02-04T18:04:08;4.10;99.90
9965;DHT22;5023;53.554;9.964;2023-02-04T18:09:15;4.00;99.90
9965;DHT22;5023;53.554;9.964;2023-02-04T18:14:21;4.00;99.90
9965;DHT22;5023;53.554;9.964;2023-02-04T18:19:28;4.00;99.90
9965;DHT22;5023;53.554;9.964;2023-02-04T18:24:34;3.90;99.90
9965;DHT22;5023;53.554;9.964;2023-02-04T18:29:40;3.80;99.90
9965;DHT22;5023;53.554;9.964;2023-02-04T18:34:45;3.80;99.90
9965;DHT22;5023;53.554;9.964;2023-02-04T18:39:49;3.70;99.90
9965;DHT22;5023;53.554;9.964;2023-02-04T18:44:51;3.70;99.90
9965;DHT22;5023;53.554;9.964;2023-02-04T18:49:58;3.60;99.90
9965;DHT22;5023;53.554;9.964;2023-02-04T18:55:17;3.60;99.90
9965;DHT22;5023;53.554;9.964;2023-02-04T19:00:29;3.50;99.90
9965;DHT22;5023;53.554;9.964;2023-02-04T19:05:35;3.50;99.90
9965;DHT22;5023;53.554;9.964;2023-02-04T19:10:39;3.40;99.90
9965;DHT22;5023;53.554;9.964;2023-02-04T19:15:44;3.40;99.90
9965;DHT22;5023;53.554;9.964;2023-02-04T19:20:50;3.30;99.90
9965;DHT22;5023;53.554;9.964;2023-02-04T19:25:54;3.40;99.90
9965;DHT22;5023;53.554;9.964;2023-02-04T19:30:59;3.40;99.90
9965;DHT22;5023;53.554;9.964;2023-02-04T19:36:16;3.50;99.90
9965;DHT22;5023;53.554;9.964;2023-02-04T19:41:27;3.60;99.90
9965;DHT22;5023;53.554;9.964;2023-02-04T19:46:32;3.50;99.90
9965;DHT22;5023;53.554;9.964;2023-02-04T19:51:35;3.30;99.90
9965;DHT22;5023;53.554;9.964;2023-02-04T19:56:39;3.20;99.90
9965;DHT22;5023;53.554;9.964;2023-02-04T20:01:41;3.10;99.90
9965;DHT22;5023;53.554;9.964;2023-02-04T20:06:44;3.00;99.90
9965;DHT22;5023;53.554;9.964;2023-02-04T20:11:56;3.00;99.90
9965;DHT22;5023;53.554;9.964;2023-02-04T20:17:00;3.00;99.90
9965;DHT22;5023;53.554;9.964;2023-02-04T20:22:35;2.90;99.90
9965;DHT22;5023;53.554;9.964;2023-02-04T20:27:52;2.90;99.90
9965;DHT22;5023;53.554;9.964;2023-02-04T20:33:03;2.80;99.90
9965;DHT22;5023;53.554;9.964;2023-02-04T20:38:28;2.80;99.90
9965;DHT22;5023;53.554;9.964;2023-02-04T20:43:41;2.60;99.90
9965;DHT22;5023;53.554;9.964;2023-02-04T20:48:47;2.60;99.90
9965;DHT22;5023;53.554;9.964;2023-02-04T20:53:50;2.60;99.90
9965;DHT22;5023;53.554;9.964;2023-02-04T20:59:08;2.70;99.90
9965;DHT22;5023;53.554;9.964;2023-02-04T21:04:20;2.70;99.90
9965;DHT22;5023;53.554;9.964;2023-02-04T21:09:24;2.50;99.90
9965;DHT22;5023;53.554;9.964;2023-02-04T21:14:29;2.50;99.90
9965;DHT22;5023;53.554;9.964;2023-02-04T21:19:30;2.40;99.90
9965;DHT22;5023;53.554;9.964;2023-02-04T21:24:33;2.30;99.90
9965;DHT22;5023;53.554;9.964;2023-02-04T21:29:37;2.40;99.90
9965;DHT22;5023;53.554;9.964;2023-02-04T21:34:39;2.20;99.90
9965;DHT22;5023;53.554;9.964;2023-02-04T21:39:42;2.10;99.90
9965;DHT22;5023;53.554;9.964;2023-02-04T21:44:46;2.20;99.90
9965;DHT22;5023;53.554;9.964;2023-02-04T21:49:48;2.40;99.90
9965;DHT22;5023;53.554;9.964;2023-02-04T21:54:50;2.20;99.90
9965;DHT22;5023;53.554;9.964;2023-02-04T21:59:53;2.20;99.90
9965;DHT22;5023;53.554;9.964;2023-02-04T22:04:55;2.20;99.90
9965;DHT22;5023;53.554;9.964;2023-02-04T22:09:57;2.20;99.90
9965;DHT22;5023;53.554;9.964;2023-02-04T22:15:01;2.00;99.90
9965;DHT22;5023;53.554;9.964;2023-02-04T22:20:04;2.00;99.90
9965;DHT22;5023;53.554;9.964;2023-02-04T22:25:07;2.00;99.90
9965;DHT22;5023;53.554;9.964;2023-02-04T22:30:13;1.80;99.90
9965;DHT22;5023;53.554;9.964;2023-02-04T22:35:16;1.90;99.90
9965;DHT22;5023;53.554;9.964;2023-02-04T22:40:18;2.00;99.90
9965;DHT22;5023;53.554;9.964;2023-02-04T22:45:22;2.00;99.90
9965;DHT22;5023;53.554;9.964;2023-02-04T22:50:24;1.90;99.90
9965;DHT22;5023;53.554;9.964;2023-02-04T22:55:32;1.90;99.90
9965;DHT22;5023;53.554;9.964;2023-02-04T23:00:37;1.80;99.90
9965;DHT22;5023;53.554;9.964;2023-02-04T23:05:41;1.70;99.90
9965;DHT22;5023;53.554;9.964;2023-02-04T23:10:46;1.60;99.90
9965;DHT22;5023;53.554;9.964;2023-02-04T23:15:50;1.50;99.90
9965;DHT22;5023;53.554;9.964;2023-02-04T23:20:52;1.50;99.90
9965;DHT22;5023;53.554;9.964;2023-02-04T23:25:55;1.60;99.90
9965;DHT22;5023;53.554;9.964;2023-02-04T23:31:01;1.60;99.90
9965;DHT22;5023;53.554;9.964;2023-02-04T23:36:04;1.50;99.90
9965;DHT22;5023;53.554;9.964;2023-02-04T23:41:06;1.60;99.90
9965;DHT22;5023;53.554;9.964;2023-02-04T23:46:10;1.50;99.90
9965;DHT22;5023;53.554;9.964;2023-02-04T23:51:12;1.50;99.90
9965;DHT22;5023;53.554;9.964;2023-02-04T23:56:14;1.60;99.90
